Santa Maria Madalena, Brazil
Current Conditions -  °F | °C
As of 3:00 AM on Friday 28 Nov 2014 (Local Time) from SBME Reporting Station
Light Rain Light Rain  
Wind Chill: 73°   Ceiling: 1500
Heat Index: 73°   Visibility: 3mi
Dew Point: 73°   Wind: 1mph
Humidity: 100%   Direction: 270°W
Pressure: 29.88"   Gusts: NA
Location:  21.96°S, 42.01°W
Report Text: SBME 280500Z 27001KT 5000 -RA SCT010 BKN015 OVC070 23/23 Q1012
Loading
Personal Weather Stations






























Interactive Weather Map New forecast layout! Learn more

10-Day Weather Forecast

Advertisements
Track Severe Weather on mobile